createdAt,value
2023-06-11T00:00:10.957Z,73.64
2023-06-11T00:01:10.964Z,73.74
2023-06-11T00:02:10.948Z,73.94
2023-06-11T00:03:11.038Z,74.14
2023-06-11T00:04:10.979Z,74.14
2023-06-11T00:05:11.249Z,74.24
2023-06-11T00:06:10.901Z,74.37
2023-06-11T00:07:10.904Z,74.48
2023-06-11T00:08:10.889Z,74.77
2023-06-11T00:09:10.865Z,75.08
2023-06-11T00:10:10.832Z,75.31
2023-06-11T00:11:10.877Z,75.71
2023-06-11T00:12:10.806Z,75.82
2023-06-11T00:13:10.826Z,75.92
2023-06-11T00:14:10.779Z,76.12
2023-06-11T00:15:11.000Z,76.21
2023-06-11T00:16:10.796Z,75.92
2023-06-11T00:17:10.755Z,76.02
2023-06-11T00:18:10.775Z,75.82
2023-06-11T00:19:10.757Z,75.71
2023-06-11T00:20:10.884Z,75.92
2023-06-11T00:21:10.724Z,75.71
2023-06-11T00:22:10.668Z,75.92
2023-06-11T00:23:10.701Z,76.21
2023-06-11T00:24:10.747Z,76.21
2023-06-11T00:25:11.005Z,76.32
2023-06-11T00:26:10.634Z,76.42
2023-06-11T00:27:10.629Z,76.42
2023-06-11T00:28:10.591Z,76.52
2023-06-11T00:29:10.617Z,76.45
2023-06-11T00:30:10.587Z,76.56
2023-06-11T00:31:10.589Z,76.76
2023-06-11T00:32:10.561Z,76.76
2023-06-11T00:33:10.653Z,76.86
2023-06-11T00:34:10.515Z,76.76
2023-06-11T00:35:11.185Z,77.09
2023-06-11T00:36:10.507Z,77.39
2023-06-11T00:37:10.544Z,77.29
2023-06-11T00:38:10.480Z,77.20
2023-06-11T00:39:10.471Z,77.00
2023-06-11T00:40:10.432Z,77.00
2023-06-11T00:41:10.451Z,76.89
2023-06-11T00:42:10.430Z,77.00
2023-06-11T00:43:10.413Z,76.89
2023-06-11T00:44:10.370Z,77.09
2023-06-11T00:45:10.673Z,76.89
2023-06-11T00:46:10.383Z,77.00
2023-06-11T00:47:10.363Z,76.79
2023-06-11T00:48:10.401Z,76.86
2023-06-11T00:49:10.328Z,76.86
2023-06-11T00:50:10.301Z,76.65
2023-06-11T00:51:10.323Z,76.76
2023-06-11T00:52:11.627Z,76.56
2023-06-11T00:53:10.301Z,76.56
2023-06-11T00:54:10.258Z,76.65
2023-06-11T00:55:10.703Z,76.56
2023-06-11T00:56:10.210Z,76.56
2023-06-11T00:57:10.241Z,76.65
2023-06-11T00:58:10.205Z,76.76
2023-06-11T00:59:10.191Z,76.35
2023-06-11T01:00:10.187Z,76.02
2023-06-11T01:01:10.233Z,75.92
2023-06-11T01:02:10.149Z,75.82
2023-06-11T01:03:10.172Z,75.82
2023-06-11T01:04:10.214Z,75.92
2023-06-11T01:05:10.733Z,76.02
2023-06-11T01:06:10.074Z,75.62
2023-06-11T01:07:10.114Z,75.51
2023-06-11T01:08:10.060Z,75.51
2023-06-11T01:09:10.097Z,75.62
2023-06-11T01:10:10.024Z,75.18
2023-06-11T01:11:11.283Z,75.58
2023-06-11T01:12:10.006Z,75.68
2023-06-11T01:13:10.032Z,76.08
2023-06-11T01:14:09.993Z,75.68
2023-06-11T01:15:10.135Z,75.48
2023-06-11T01:16:09.955Z,75.38
2023-06-11T01:17:09.954Z,74.88
2023-06-11T01:18:09.973Z,75.27
2023-06-11T01:19:09.949Z,75.58
2023-06-11T01:20:09.899Z,75.68
2023-06-11T01:21:09.907Z,75.62
2023-06-11T01:22:09.891Z,75.92
2023-06-11T01:23:09.868Z,75.92
2023-06-11T01:24:09.873Z,76.12
2023-06-11T01:25:10.070Z,76.02
2023-06-11T01:26:09.809Z,76.02
2023-06-11T01:27:09.829Z,76.12
2023-06-11T01:28:09.822Z,76.21
2023-06-11T01:29:09.805Z,76.56
2023-06-11T01:30:09.781Z,76.96
2023-06-11T01:31:09.805Z,77.06
2023-06-11T01:32:09.724Z,77.26
2023-06-11T01:33:09.946Z,77.36
2023-06-11T01:34:09.748Z,77.59
2023-06-11T01:35:09.991Z,77.80
2023-06-11T01:36:09.757Z,78.00
2023-06-11T01:37:09.643Z,78.30
2023-06-11T01:38:09.726Z,78.40
2023-06-11T01:39:09.638Z,78.40
2023-06-11T01:40:09.651Z,78.50
2023-06-11T01:41:09.625Z,78.94
2023-06-11T01:42:09.656Z,79.35
2023-06-11T01:43:09.583Z,79.54
2023-06-11T01:44:09.604Z,79.64
2023-06-11T01:45:10.102Z,79.74
2023-06-11T01:46:09.613Z,79.94
2023-06-11T01:47:09.521Z,80.08
2023-06-11T01:48:09.575Z,80.19
2023-06-11T01:49:09.501Z,80.29
2023-06-11T01:50:09.562Z,80.39
2023-06-11T01:51:09.511Z,80.29
2023-06-11T01:52:09.502Z,80.15
2023-06-11T01:53:09.444Z,80.05
2023-06-11T01:54:09.463Z,79.94
2023-06-11T01:55:09.780Z,80.25
2023-06-11T01:56:09.452Z,80.35
2023-06-11T01:57:09.392Z,80.15
2023-06-11T01:58:09.423Z,80.39
2023-06-11T01:59:09.398Z,80.99
2023-06-11T02:00:09.375Z,80.89
2023-06-11T02:01:09.369Z,81.09
2023-06-11T02:02:09.469Z,80.99
2023-06-11T02:03:09.454Z,80.99
2023-06-11T02:04:09.388Z,81.19
2023-06-11T02:05:09.600Z,80.99
2023-06-11T02:06:09.292Z,80.79
2023-06-11T02:07:09.288Z,80.89
2023-06-11T02:08:09.295Z,80.79
2023-06-11T02:09:09.230Z,80.69
2023-06-11T02:10:09.243Z,80.55
2023-06-11T02:11:09.221Z,80.45
2023-06-11T02:12:09.255Z,80.45
2023-06-11T02:13:09.205Z,80.45
2023-06-11T02:14:09.202Z,80.69
2023-06-11T02:15:09.548Z,80.79
2023-06-11T02:16:09.216Z,80.89
2023-06-11T02:17:09.133Z,80.99
2023-06-11T02:18:09.195Z,81.19
2023-06-11T02:19:09.109Z,81.49
2023-06-11T02:20:09.125Z,81.70
2023-06-11T02:21:09.074Z,81.90
2023-06-11T02:22:09.129Z,82.24
2023-06-11T02:23:09.052Z,82.34
2023-06-11T02:24:09.095Z,82.74
2023-06-11T02:25:09.460Z,82.74
2023-06-11T02:26:09.051Z,82.64
2023-06-11T02:27:08.980Z,82.74
2023-06-11T02:28:09.001Z,82.84
2023-06-11T02:29:08.988Z,83.04
2023-06-11T02:30:08.990Z,83.14
2023-06-11T02:31:08.980Z,83.25
2023-06-11T02:32:09.057Z,83.34
2023-06-11T02:33:09.002Z,83.65
2023-06-11T02:34:08.959Z,83.84
2023-06-11T02:35:09.264Z,84.19
2023-06-11T02:36:08.930Z,84.29
2023-06-11T02:37:08.883Z,84.59
2023-06-11T02:38:08.880Z,84.69
2023-06-11T02:39:08.842Z,84.80
2023-06-11T02:40:08.855Z,84.89
2023-06-11T02:41:08.851Z,85.00
2023-06-11T02:42:08.830Z,85.00
2023-06-11T02:43:08.776Z,84.80
2023-06-11T02:44:08.824Z,84.80
2023-06-11T02:45:08.951Z,84.89
2023-06-11T02:46:08.861Z,84.80
2023-06-11T02:47:08.735Z,84.80
2023-06-11T02:48:08.859Z,84.69
2023-06-11T02:49:08.694Z,84.80
2023-06-11T02:50:08.726Z,84.80
2023-06-11T02:51:08.686Z,84.89
2023-06-11T02:52:08.708Z,85.10
2023-06-11T02:53:08.647Z,85.20
2023-06-11T02:54:08.674Z,85.40
2023-06-11T02:55:08.849Z,85.30
2023-06-11T02:56:08.664Z,85.50
2023-06-11T02:57:08.628Z,85.40
2023-06-11T02:58:08.621Z,85.40
2023-06-11T02:59:08.579Z,85.84
2023-06-11T03:00:08.584Z,85.74
2023-06-11T03:01:08.570Z,85.84
2023-06-11T03:02:08.569Z,85.94
2023-06-11T03:03:08.595Z,85.94
2023-06-11T03:04:08.609Z,86.04
2023-06-11T03:05:08.763Z,86.04
2023-06-11T03:06:08.503Z,86.15
2023-06-11T03:07:08.490Z,85.94
2023-06-11T03:08:08.508Z,85.84
2023-06-11T03:09:08.469Z,85.64
2023-06-11T03:10:08.448Z,85.74
2023-06-11T03:11:08.396Z,85.64
2023-06-11T03:12:08.447Z,85.64
2023-06-11T03:13:08.397Z,85.84
2023-06-11T03:14:08.397Z,85.94
2023-06-11T03:15:08.541Z,86.24
2023-06-11T03:16:08.466Z,86.29
2023-06-11T03:17:08.356Z,86.38
2023-06-11T03:18:08.335Z,86.38
2023-06-11T03:19:08.324Z,86.58
2023-06-11T03:20:08.304Z,86.58
2023-06-11T03:21:08.279Z,86.79
2023-06-11T03:22:08.289Z,86.89
2023-06-11T03:23:08.289Z,86.99
2023-06-11T03:24:08.257Z,87.19
2023-06-11T03:25:08.419Z,87.34
2023-06-11T03:26:08.229Z,87.43
2023-06-11T03:27:08.185Z,87.54
2023-06-11T03:28:08.235Z,87.74
2023-06-11T03:29:08.173Z,87.84
2023-06-11T03:30:08.176Z,87.84
2023-06-11T03:31:08.145Z,87.94
2023-06-11T03:32:10.489Z,87.94
2023-06-11T03:33:08.123Z,88.04
2023-06-11T03:34:08.154Z,88.04
2023-06-11T03:35:08.288Z,88.04
2023-06-11T03:36:08.093Z,88.04
2023-06-11T03:37:08.051Z,88.04
2023-06-11T03:38:08.061Z,87.94
2023-06-11T03:39:08.041Z,88.04
2023-06-11T03:40:08.064Z,87.84
2023-06-11T03:41:08.017Z,87.84
2023-06-11T03:42:08.008Z,87.74
2023-06-11T03:43:07.992Z,87.94
2023-06-11T03:44:08.002Z,88.04
2023-06-11T03:45:08.063Z,88.24
2023-06-11T03:46:07.971Z,88.24
2023-06-11T03:47:08.085Z,88.45
2023-06-11T03:48:07.998Z,88.65
2023-06-11T03:49:07.931Z,88.75
2023-06-11T03:50:07.908Z,88.75
2023-06-11T03:51:07.888Z,88.85
2023-06-11T03:52:07.878Z,88.95
2023-06-11T03:53:07.832Z,88.75
2023-06-11T03:54:07.858Z,88.75
2023-06-11T03:55:07.943Z,88.75
2023-06-11T03:56:07.838Z,88.75
2023-06-11T03:57:07.779Z,88.75
2023-06-11T03:58:07.788Z,88.75
2023-06-11T03:59:07.784Z,88.85
2023-06-11T04:00:07.790Z,88.95
2023-06-11T04:01:07.768Z,88.85
2023-06-11T04:02:07.790Z,88.85
2023-06-11T04:03:07.751Z,88.85
2023-06-11T04:04:07.764Z,88.65
2023-06-11T04:05:07.723Z,88.75
2023-06-11T04:06:07.733Z,88.54
2023-06-11T04:07:07.652Z,88.54
2023-06-11T04:08:07.660Z,88.54
2023-06-11T04:09:07.653Z,88.34
2023-06-11T04:10:07.652Z,88.40
2023-06-11T04:11:07.686Z,88.20
2023-06-11T04:12:07.623Z,88.20
2023-06-11T04:13:07.628Z,88.20
2023-06-11T04:14:07.570Z,88.30
2023-06-11T04:15:07.579Z,88.30
2023-06-11T04:16:07.664Z,88.00
2023-06-11T04:17:07.586Z,88.00
2023-06-11T04:18:07.574Z,88.00
2023-06-11T04:19:07.497Z,88.00
2023-06-11T04:20:07.496Z,88.10
2023-06-11T04:21:07.471Z,88.00
2023-06-11T04:22:07.461Z,88.00
2023-06-11T04:23:07.458Z,87.90
2023-06-11T04:24:09.500Z,87.90
2023-06-11T04:25:08.488Z,87.80
2023-06-11T04:26:07.432Z,87.90
2023-06-11T04:27:07.376Z,87.85
2023-06-11T04:28:07.407Z,87.65
2023-06-11T04:29:07.344Z,87.55
2023-06-11T04:30:07.362Z,87.35
2023-06-11T04:31:07.358Z,87.25
2023-06-11T04:32:07.331Z,87.15
2023-06-11T04:33:07.427Z,87.25
2023-06-11T04:34:07.312Z,87.05
2023-06-11T04:35:07.304Z,86.95
2023-06-11T04:36:07.302Z,86.75
2023-06-11T04:37:07.246Z,86.85
2023-06-11T04:38:07.262Z,86.81
2023-06-11T04:39:07.230Z,86.91
2023-06-11T04:40:07.223Z,86.81
2023-06-11T04:41:07.188Z,86.61
2023-06-11T04:42:07.199Z,86.61
2023-06-11T04:43:07.198Z,86.41
2023-06-11T04:44:07.194Z,86.51
2023-06-11T04:45:07.150Z,86.41
2023-06-11T04:46:07.203Z,86.41
2023-06-11T04:47:07.192Z,86.21
2023-06-11T04:48:07.190Z,85.70
2023-06-11T04:49:07.078Z,85.76
2023-06-11T04:50:07.171Z,85.86
2023-06-11T04:51:07.062Z,85.86
2023-06-11T04:52:07.074Z,85.96
2023-06-11T04:53:07.045Z,86.16
2023-06-11T04:54:07.054Z,85.36
2023-06-11T04:55:07.028Z,85.66
2023-06-11T04:56:07.034Z,85.46
2023-06-11T04:57:07.009Z,85.42
2023-06-11T04:58:06.995Z,85.52
2023-06-11T04:59:06.947Z,85.22
2023-06-11T05:00:06.973Z,85.02
2023-06-11T05:01:06.939Z,85.02
2023-06-11T05:02:06.954Z,85.22
2023-06-11T05:03:06.916Z,84.71
2023-06-11T05:04:06.909Z,84.51
2023-06-11T05:05:07.304Z,84.37
2023-06-11T05:06:06.922Z,84.17
2023-06-11T05:07:06.835Z,83.76
2023-06-11T05:08:06.856Z,83.97
2023-06-11T05:09:06.824Z,84.27
2023-06-11T05:10:06.838Z,84.37
2023-06-11T05:11:06.797Z,83.76
2023-06-11T05:12:06.826Z,83.57
2023-06-11T05:13:06.762Z,83.23
2023-06-11T05:14:07.360Z,83.43
2023-06-11T05:15:06.748Z,83.43
2023-06-11T05:16:06.785Z,83.23
2023-06-11T05:17:06.751Z,83.03
2023-06-11T05:18:06.761Z,83.23
2023-06-11T05:19:06.699Z,82.62
2023-06-11T05:20:06.688Z,82.82
2023-06-11T05:21:06.669Z,82.72
2023-06-11T05:22:06.692Z,82.48
2023-06-11T05:23:06.738Z,82.58
2023-06-11T05:24:06.734Z,82.48
2023-06-11T05:25:06.599Z,82.58
2023-06-11T05:26:06.649Z,82.18
2023-06-11T05:27:06.578Z,82.08
2023-06-11T05:28:06.610Z,81.98
2023-06-11T05:29:06.528Z,81.98
2023-06-11T05:30:06.589Z,82.18
2023-06-11T05:31:06.555Z,81.94
2023-06-11T05:32:06.707Z,81.94
2023-06-11T05:33:06.578Z,82.34
2023-06-11T05:34:06.464Z,82.24
2023-06-11T05:35:06.494Z,82.24
2023-06-11T05:36:06.455Z,82.24
2023-06-11T05:37:06.482Z,81.94
2023-06-11T05:38:06.426Z,81.84
2023-06-11T05:39:06.415Z,82.34
2023-06-11T05:40:07.025Z,82.60
2023-06-11T05:41:06.438Z,81.50
2023-06-11T05:42:06.392Z,82.10
2023-06-11T05:43:06.369Z,82.31
2023-06-11T05:44:06.326Z,81.40
2023-06-11T05:45:06.345Z,81.46
2023-06-11T05:46:06.405Z,81.76
2023-06-11T05:47:06.340Z,81.56
2023-06-11T05:48:06.331Z,81.06
2023-06-11T05:49:06.275Z,81.46
2023-06-11T05:50:06.288Z,81.73
2023-06-11T05:51:06.264Z,81.23
2023-06-11T05:52:06.275Z,80.12
2023-06-11T05:53:06.223Z,79.72
2023-06-11T05:54:06.231Z,79.12
2023-06-11T05:55:06.194Z,79.82
2023-06-11T05:56:06.529Z,79.42
2023-06-11T05:57:06.176Z,79.68
2023-06-11T05:58:06.207Z,79.48
2023-06-11T05:59:06.135Z,79.08
2023-06-11T06:00:06.155Z,79.28
2023-06-11T06:01:06.108Z,79.88
2023-06-11T06:02:06.198Z,79.28
2023-06-11T06:03:06.226Z,79.38
2023-06-11T06:04:06.256Z,79.28
2023-06-11T06:05:06.122Z,78.98
2023-06-11T06:06:06.069Z,78.98
2023-06-11T06:07:06.046Z,78.98
2023-06-11T06:08:06.042Z,78.28
2023-06-11T06:09:06.020Z,78.04
2023-06-11T06:10:06.041Z,79.04
2023-06-11T06:11:05.976Z,77.64
2023-06-11T06:12:06.029Z,78.34
2023-06-11T06:13:05.960Z,79.04
2023-06-11T06:14:05.961Z,79.44
2023-06-11T06:15:05.917Z,79.24
2023-06-11T06:16:06.281Z,78.30
2023-06-11T06:17:05.892Z,77.80
2023-06-11T06:18:05.968Z,77.91
2023-06-11T06:19:05.862Z,78.10
2023-06-11T06:20:05.886Z,77.20
2023-06-11T06:21:05.846Z,77.40
2023-06-11T06:22:05.876Z,77.67
2023-06-11T06:23:05.868Z,76.50
2023-06-11T06:24:05.937Z,76.90
2023-06-11T06:25:05.806Z,76.56
2023-06-11T06:26:05.794Z,76.56
2023-06-11T06:27:05.763Z,76.46
2023-06-11T06:28:05.848Z,75.87
2023-06-11T06:29:05.758Z,76.30
2023-06-11T06:30:05.736Z,76.00
2023-06-11T06:31:05.710Z,77.20
2023-06-11T06:32:05.845Z,76.87
2023-06-11T06:33:05.750Z,76.37
2023-06-11T06:34:05.728Z,77.17
2023-06-11T06:35:05.656Z,77.67
2023-06-11T06:36:05.674Z,77.97
2023-06-11T06:37:05.648Z,76.87
2023-06-11T06:38:05.638Z,77.33
2023-06-11T06:39:05.646Z,76.73
2023-06-11T06:40:05.630Z,76.63
2023-06-11T06:41:05.585Z,76.23
2023-06-11T06:42:05.585Z,76.13
2023-06-11T06:43:05.547Z,76.73
2023-06-11T06:44:05.625Z,75.39
2023-06-11T06:45:05.540Z,75.29
2023-06-11T06:46:05.636Z,75.09
2023-06-11T06:47:05.511Z,75.59
2023-06-11T06:48:05.570Z,74.99
2023-06-11T06:49:05.564Z,74.99
2023-06-11T06:50:05.503Z,75.79
2023-06-11T06:51:05.479Z,74.59
2023-06-11T06:52:05.457Z,75.59
2023-06-11T06:53:05.450Z,74.59
2023-06-11T06:54:05.427Z,75.59
2023-06-11T06:55:05.416Z,75.46
2023-06-11T06:56:05.409Z,74.36
2023-06-11T06:57:05.383Z,74.66
2023-06-11T06:58:05.413Z,74.76
2023-06-11T06:59:05.339Z,74.76
2023-06-11T07:00:05.367Z,74.46
2023-06-11T07:01:05.367Z,74.46
2023-06-11T07:02:07.945Z,73.96
2023-06-11T07:03:05.345Z,74.22
2023-06-11T07:04:05.295Z,75.22
2023-06-11T07:05:05.288Z,74.62
2023-06-11T07:06:05.353Z,72.89
2023-06-11T07:07:05.259Z,72.13
2023-06-11T07:08:05.245Z,73.32
2023-06-11T07:09:05.309Z,73.39
2023-06-11T07:10:05.252Z,73.49
2023-06-11T07:11:05.184Z,72.99
2023-06-11T07:12:05.222Z,72.99
2023-06-11T07:13:05.150Z,74.19
2023-06-11T07:14:05.177Z,74.19
2023-06-11T07:15:05.155Z,73.75
2023-06-11T07:16:05.245Z,73.45
2023-06-11T07:17:05.116Z,73.35
2023-06-11T07:18:05.836Z,72.85
2023-06-11T07:19:05.081Z,73.95
2023-06-11T07:20:05.110Z,73.35
2023-06-11T07:21:05.095Z,72.35
2023-06-11T07:22:05.055Z,73.45
2023-06-11T07:23:05.026Z,72.95
2023-06-11T07:24:05.137Z,72.62
2023-06-11T07:25:04.985Z,71.06
2023-06-11T07:26:05.007Z,72.05
2023-06-11T07:27:04.988Z,72.42
2023-06-11T07:28:04.983Z,72.81
2023-06-11T07:29:04.977Z,72.52
2023-06-11T07:30:04.981Z,74.02
2023-06-11T07:31:05.009Z,72.62
2023-06-11T07:32:04.940Z,73.42
2023-06-11T07:33:04.966Z,71.89
2023-06-11T07:34:04.906Z,71.89
2023-06-11T07:35:04.895Z,71.98
2023-06-11T07:36:04.884Z,71.98
2023-06-11T07:37:04.847Z,72.19
2023-06-11T07:38:04.870Z,71.69
2023-06-11T07:39:04.878Z,70.49
2023-06-11T07:40:04.823Z,72.08
2023-06-11T07:41:04.793Z,72.19
2023-06-11T07:42:04.796Z,71.69
2023-06-11T07:43:04.768Z,69.89
2023-06-11T07:44:04.776Z,70.06
2023-06-11T07:45:04.823Z,70.75
2023-06-11T07:46:04.773Z,69.96
2023-06-11T07:47:04.798Z,70.26
2023-06-11T07:48:04.739Z,69.26
2023-06-11T07:49:04.687Z,68.37
2023-06-11T07:50:04.743Z,68.83
2023-06-11T07:51:04.703Z,69.53
2023-06-11T07:52:04.668Z,69.82
2023-06-11T07:53:04.623Z,69.39
2023-06-11T07:54:04.785Z,68.00
2023-06-11T07:55:04.591Z,67.86
2023-06-11T07:56:04.612Z,67.77
2023-06-11T07:57:04.599Z,67.47
2023-06-11T07:58:04.604Z,66.74
2023-06-11T07:59:04.548Z,66.64
2023-06-11T08:00:04.545Z,66.05
2023-06-11T08:01:04.515Z,67.50
2023-06-11T08:02:04.553Z,65.72
2023-06-11T08:03:04.513Z,64.19
2023-06-11T08:04:04.525Z,62.70
2023-06-11T08:05:04.475Z,63.20
2023-06-11T08:06:04.469Z,64.49
2023-06-11T08:07:04.455Z,63.40
2023-06-11T08:08:04.501Z,65.58
2023-06-11T08:09:04.413Z,65.09
2023-06-11T08:10:04.469Z,65.25
2023-06-11T08:11:04.384Z,64.06
2023-06-11T08:12:04.394Z,64.46
2023-06-11T08:13:04.379Z,62.87
2023-06-11T08:14:04.381Z,63.27
2023-06-11T08:15:04.321Z,64.46
2023-06-11T08:16:04.354Z,63.76
2023-06-11T08:17:04.440Z,63.07
2023-06-11T08:18:04.351Z,63.27
2023-06-11T08:19:04.327Z,63.07
2023-06-11T08:20:04.291Z,62.67
2023-06-11T08:21:04.254Z,64.06
2023-06-11T08:22:04.292Z,64.73
2023-06-11T08:23:04.246Z,64.53
2023-06-11T08:24:04.336Z,63.24
2023-06-11T08:25:04.208Z,62.45
2023-06-11T08:26:04.236Z,62.84
2023-06-11T08:27:04.165Z,62.45
2023-06-11T08:28:04.206Z,63.64
2023-06-11T08:29:04.772Z,62.84
2023-06-11T08:30:04.156Z,63.60
2023-06-11T08:31:04.155Z,61.91
2023-06-11T08:32:04.166Z,61.72
2023-06-11T08:33:04.130Z,61.82
2023-06-11T08:34:04.108Z,60.03
2023-06-11T08:35:04.102Z,60.53
2023-06-11T08:36:04.069Z,61.22
2023-06-11T08:37:04.030Z,60.89
2023-06-11T08:38:04.075Z,60.00
2023-06-11T08:39:04.041Z,59.61
2023-06-11T08:40:04.017Z,61.36
2023-06-11T08:41:03.977Z,62.85
2023-06-11T08:42:03.987Z,63.24
2023-06-11T08:43:03.954Z,62.48
2023-06-11T08:44:04.002Z,61.99
2023-06-11T08:45:03.969Z,62.68
2023-06-11T08:46:03.979Z,62.29
2023-06-11T08:47:04.686Z,62.38
2023-06-11T08:48:03.991Z,62.18
2023-06-11T08:49:03.906Z,62.48
2023-06-11T08:50:03.925Z,63.10
2023-06-11T08:51:03.869Z,64.37
2023-06-11T08:52:03.853Z,63.24
2023-06-11T08:53:03.809Z,61.26
2023-06-11T08:54:03.882Z,61.76
2023-06-11T08:55:03.875Z,62.05
2023-06-11T08:56:03.857Z,61.56
2023-06-11T08:57:03.772Z,62.08
2023-06-11T08:58:03.795Z,62.38
2023-06-11T08:59:03.812Z,62.98
2023-06-11T09:00:03.767Z,63.60
2023-06-11T09:01:03.739Z,62.51
2023-06-11T09:02:03.854Z,64.20
2023-06-11T09:03:03.781Z,64.76
2023-06-11T09:04:03.742Z,61.39
2023-06-11T09:05:03.670Z,62.78
2023-06-11T09:06:03.738Z,61.49
2023-06-11T09:07:03.667Z,61.19
2023-06-11T09:08:03.641Z,63.31
2023-06-11T09:09:03.618Z,62.41
2023-06-11T09:10:03.648Z,62.88
2023-06-11T09:11:03.592Z,63.45
2023-06-11T09:12:03.641Z,62.15
2023-06-11T09:13:03.561Z,60.54
2023-06-11T09:14:03.588Z,60.94
2023-06-11T09:15:03.567Z,60.34
2023-06-11T09:16:03.588Z,60.27
2023-06-11T09:17:03.546Z,61.07
2023-06-11T09:18:03.600Z,62.52
2023-06-11T09:19:03.503Z,60.61
2023-06-11T09:20:03.532Z,59.72
2023-06-11T09:21:03.492Z,59.62
2023-06-11T09:22:03.498Z,57.44
2023-06-11T09:23:03.444Z,58.50
2023-06-11T09:24:03.528Z,57.78
2023-06-11T09:25:03.423Z,57.35
2023-06-11T09:26:03.463Z,56.04
2023-06-11T09:27:03.402Z,55.43
2023-06-11T09:28:03.394Z,55.33
2023-06-11T09:29:03.354Z,54.73
2023-06-11T09:30:03.392Z,55.03
2023-06-11T09:31:03.342Z,57.06
2023-06-11T09:32:07.659Z,58.37
2023-06-11T09:33:03.414Z,58.11
2023-06-11T09:34:03.312Z,58.43
2023-06-11T09:35:03.276Z,58.86
2023-06-11T09:36:03.294Z,59.52
2023-06-11T09:37:03.257Z,59.52
2023-06-11T09:38:03.250Z,58.53
2023-06-11T09:39:03.251Z,57.41
2023-06-11T09:40:03.245Z,58.28
2023-06-11T09:41:03.214Z,58.28
2023-06-11T09:42:03.206Z,58.54
2023-06-11T09:43:03.200Z,56.67
2023-06-11T09:44:03.185Z,58.45
2023-06-11T09:45:03.175Z,58.34
2023-06-11T09:46:03.305Z,57.56
2023-06-11T09:47:03.745Z,58.67
2023-06-11T09:48:03.245Z,58.18
2023-06-11T09:49:03.093Z,58.07
2023-06-11T09:50:03.224Z,57.48
2023-06-11T09:51:03.085Z,57.06
2023-06-11T09:52:03.092Z,56.20
2023-06-11T09:53:03.055Z,56.69
2023-06-11T09:54:03.048Z,55.80
2023-06-11T09:55:03.071Z,57.09
2023-06-11T09:56:11.048Z,55.97
2023-06-11T09:57:03.031Z,55.47
2023-06-11T09:58:03.004Z,55.55
2023-06-11T09:59:02.966Z,54.36
2023-06-11T10:00:02.998Z,53.97
2023-06-11T10:01:05.633Z,54.44
2023-06-11T10:02:02.962Z,54.63
2023-06-11T10:03:02.986Z,53.85
2023-06-11T10:04:02.979Z,54.53
2023-06-11T10:05:02.941Z,53.62
2023-06-11T10:06:02.916Z,53.22
2023-06-11T10:07:02.893Z,52.26
2023-06-11T10:08:02.841Z,51.87
2023-06-11T10:09:02.851Z,52.06
2023-06-11T10:10:02.854Z,52.66
2023-06-11T10:11:02.860Z,52.48
2023-06-11T10:12:02.847Z,51.30
2023-06-11T10:13:02.854Z,52.98
2023-06-11T10:14:02.784Z,52.19
2023-06-11T10:15:02.811Z,51.89
2023-06-11T10:16:02.784Z,51.92
2023-06-11T10:17:02.758Z,53.40
2023-06-11T10:18:02.783Z,52.31
2023-06-11T10:19:02.730Z,53.70
2023-06-11T10:20:02.731Z,52.01
2023-06-11T10:21:02.747Z,51.52
2023-06-11T10:22:02.672Z,52.39
2023-06-11T10:23:04.682Z,52.78
2023-06-11T10:24:02.686Z,52.36
2023-06-11T10:25:02.682Z,52.46
2023-06-11T10:26:02.632Z,51.15
2023-06-11T10:27:02.726Z,49.55
2023-06-11T10:28:02.585Z,49.13
2023-06-11T10:29:03.809Z,48.54
2023-06-11T10:30:02.566Z,51.10
2023-06-11T10:31:02.591Z,49.82
2023-06-11T10:32:02.532Z,49.13
2023-06-11T10:33:02.661Z,49.05
2023-06-11T10:34:02.596Z,49.65
2023-06-11T10:35:02.652Z,50.56
2023-06-11T10:36:02.524Z,48.71
2023-06-11T10:37:02.496Z,48.11
2023-06-11T10:38:02.494Z,48.83
2023-06-11T10:39:02.497Z,49.32
2023-06-11T10:40:02.444Z,49.72
2023-06-11T10:41:02.483Z,50.98
2023-06-11T10:42:02.405Z,49.79
2023-06-11T10:43:02.417Z,48.61
2023-06-11T10:44:02.433Z,48.68
2023-06-11T10:45:03.179Z,48.98
2023-06-11T10:46:02.418Z,47.40
2023-06-11T10:47:02.646Z,46.23
2023-06-11T10:48:02.405Z,46.44
2023-06-11T10:49:02.353Z,46.33
2023-06-11T10:50:02.325Z,44.95
2023-06-11T10:51:02.322Z,44.64
2023-06-11T10:52:02.314Z,45.92
2023-06-11T10:53:02.303Z,48.56
2023-06-11T10:54:02.260Z,46.98
2023-06-11T10:55:02.274Z,46.29
2023-06-11T10:56:02.266Z,45.89
2023-06-11T10:57:02.244Z,44.71
2023-06-11T10:58:02.214Z,46.41
2023-06-11T10:59:02.210Z,46.78
2023-06-11T11:00:02.184Z,47.38
2023-06-11T11:01:02.216Z,45.89
2023-06-11T11:02:02.252Z,47.45
2023-06-11T11:03:02.264Z,46.47
2023-06-11T11:04:02.262Z,44.37
2023-06-11T11:05:02.144Z,44.07
2023-06-11T11:06:02.128Z,43.80
2023-06-11T11:07:02.115Z,44.91
2023-06-11T11:08:02.108Z,44.51
2023-06-11T11:09:02.068Z,44.51
2023-06-11T11:10:02.075Z,44.12
2023-06-11T11:11:02.101Z,44.61
2023-06-11T11:12:02.032Z,45.40
2023-06-11T11:13:02.046Z,45.70
2023-06-11T11:14:02.350Z,45.18
2023-06-11T11:15:02.014Z,44.47
2023-06-11T11:16:01.987Z,43.68
2023-06-11T11:17:02.571Z,45.16
2023-06-11T11:18:01.954Z,43.31
2023-06-11T11:19:01.949Z,43.51
2023-06-11T11:20:01.906Z,43.33
2023-06-11T11:21:01.953Z,43.23
2023-06-11T11:22:01.943Z,44.32
2023-06-11T11:23:01.883Z,45.50
2023-06-11T11:24:01.945Z,45.08
2023-06-11T11:25:01.864Z,44.69
2023-06-11T11:26:01.829Z,45.48
2023-06-11T11:27:01.842Z,43.78
2023-06-11T11:28:01.846Z,43.11
2023-06-11T11:29:01.859Z,44.10
2023-06-11T11:30:03.645Z,45.46
2023-06-11T11:31:01.794Z,43.29
2023-06-11T11:32:01.809Z,43.19
2023-06-11T11:33:01.817Z,43.38
2023-06-11T11:34:01.753Z,41.71
2023-06-11T11:35:01.765Z,40.92
2023-06-11T11:36:03.163Z,42.22
2023-06-11T11:37:01.747Z,41.73
2023-06-11T11:38:01.669Z,42.99
2023-06-11T11:39:01.704Z,43.19
2023-06-11T11:40:01.705Z,43.09
2023-06-11T11:41:01.662Z,42.50
2023-06-11T11:42:03.012Z,43.90
2023-06-11T11:43:01.640Z,40.33
2023-06-11T11:44:01.635Z,42.02
2023-06-11T11:45:01.649Z,42.22
2023-06-11T11:46:01.725Z,42.52
2023-06-11T11:47:01.584Z,43.21
2023-06-11T11:48:04.425Z,42.52
2023-06-11T11:49:01.578Z,42.52
2023-06-11T11:50:01.587Z,42.72
2023-06-11T11:51:01.544Z,44.29
2023-06-11T11:52:01.512Z,41.83
2023-06-11T11:53:01.526Z,42.44
2023-06-11T11:54:03.659Z,42.64
2023-06-11T11:55:01.483Z,42.34
2023-06-11T11:56:06.604Z,41.85
2023-06-11T11:57:01.500Z,40.96
2023-06-11T11:58:01.414Z,42.24
2023-06-11T11:59:01.418Z,41.75
2023-06-11T12:00:01.418Z,42.13
2023-06-11T12:01:01.400Z,43.68
2023-06-11T12:02:01.368Z,42.60
2023-06-11T12:03:01.478Z,39.62
2023-06-11T12:04:01.418Z,38.24
2023-06-11T12:05:01.337Z,38.24
2023-06-11T12:06:01.401Z,39.03
2023-06-11T12:07:01.308Z,38.51
2023-06-11T12:08:01.301Z,38.02
2023-06-11T12:09:01.305Z,38.20
2023-06-11T12:10:03.747Z,38.20
2023-06-11T12:11:01.275Z,37.12
2023-06-11T12:12:05.547Z,37.24
2023-06-11T12:13:01.264Z,36.65
2023-06-11T12:14:01.190Z,37.63
2023-06-11T12:15:01.229Z,37.34
2023-06-11T12:16:04.107Z,38.81
2023-06-11T12:17:01.364Z,38.81
2023-06-11T12:18:01.229Z,37.43
2023-06-11T12:19:14.385Z,35.76
2023-06-11T12:20:01.126Z,37.74
2023-06-11T12:21:01.126Z,38.14
2023-06-11T12:22:01.099Z,38.43
2023-06-11T12:23:01.104Z,37.55
2023-06-11T12:24:01.230Z,35.77
2023-06-11T12:25:01.109Z,36.29
2023-06-11T12:26:01.039Z,38.56
2023-06-11T12:27:04.230Z,37.96
2023-06-11T12:28:01.034Z,34.69
2023-06-11T12:29:01.044Z,35.28
2023-06-11T12:30:01.027Z,35.38
2023-06-11T12:31:01.011Z,34.99
2023-06-11T12:32:01.003Z,37.14
2023-06-11T12:33:01.058Z,35.96
2023-06-11T12:34:00.964Z,36.65
2023-06-11T12:35:00.965Z,35.44
2023-06-11T12:36:00.954Z,33.77
2023-06-11T12:37:00.925Z,35.15
2023-06-11T12:38:00.902Z,34.46
2023-06-11T12:39:00.929Z,34.86
2023-06-11T12:40:00.883Z,34.95
2023-06-11T12:41:00.918Z,33.79
2023-06-11T12:42:00.839Z,35.07
2023-06-11T12:43:01.029Z,33.59
2023-06-11T12:44:00.810Z,32.70
2023-06-11T12:45:00.849Z,32.41
2023-06-11T12:46:00.849Z,32.89
2023-06-11T12:47:00.859Z,33.28
2023-06-11T12:48:00.778Z,32.49
2023-06-11T12:49:00.797Z,33.28
2023-06-11T12:50:00.763Z,34.44
2023-06-11T12:51:00.760Z,33.75
2023-06-11T12:52:00.710Z,32.38